sensor_id;sensor_type;location;lat;lon;timestamp;pressure;altitude;pressure_sealevel;temperature;humidity
19624;BME280;9959;49.798;9.928;2023-07-16T00:00:44;99243.69;;;19.93;100.00
19624;BME280;9959;49.798;9.928;2023-07-16T00:03:11;99260.06;;;19.99;100.00
19624;BME280;9959;49.798;9.928;2023-07-16T00:05:38;99282.25;;;19.92;100.00
19624;BME280;9959;49.798;9.928;2023-07-16T00:08:05;99314.75;;;19.99;100.00
19624;BME280;9959;49.798;9.928;2023-07-16T00:10:35;99352.75;;;20.00;100.00
19624;BME280;9959;49.798;9.928;2023-07-16T00:13:03;99375.44;;;20.01;100.00
19624;BME280;9959;49.798;9.928;2023-07-16T00:15:30;99389.66;;;19.98;100.00
19624;BME280;9959;49.798;9.928;2023-07-16T00:17:57;99396.28;;;19.81;100.00
19624;BME280;9959;49.798;9.928;2023-07-16T00:20:24;99386.19;;;19.77;100.00
19624;BME280;9959;49.798;9.928;2023-07-16T00:22:51;99379.91;;;19.71;100.00
19624;BME280;9959;49.798;9.928;2023-07-16T00:25:18;99390.34;;;19.64;100.00
19624;BME280;9959;49.798;9.928;2023-07-16T00:27:46;99343.91;;;19.54;100.00
19624;BME280;9959;49.798;9.928;2023-07-16T00:30:13;99347.72;;;19.58;100.00
19624;BME280;9959;49.798;9.928;2023-07-16T00:32:40;99350.47;;;19.58;100.00
19624;BME280;9959;49.798;9.928;2023-07-16T00:35:07;99343.34;;;19.57;100.00
19624;BME280;9959;49.798;9.928;2023-07-16T00:37:34;99340.34;;;19.64;100.00
19624;BME280;9959;49.798;9.928;2023-07-16T00:40:01;99324.78;;;19.54;100.00
19624;BME280;9959;49.798;9.928;2023-07-16T00:42:28;99329.09;;;19.70;100.00
19624;BME280;9959;49.798;9.928;2023-07-16T00:44:55;99328.06;;;19.56;100.00
19624;BME280;9959;49.798;9.928;2023-07-16T00:47:22;99326.41;;;19.65;100.00
19624;BME280;9959;49.798;9.928;2023-07-16T00:49:49;99316.00;;;19.62;100.00
19624;BME280;9959;49.798;9.928;2023-07-16T00:52:18;99302.56;;;19.76;100.00
19624;BME280;9959;49.798;9.928;2023-07-16T00:54:48;99315.41;;;19.70;100.00
19624;BME280;9959;49.798;9.928;2023-07-16T00:57:15;99318.19;;;19.65;100.00
19624;BME280;9959;49.798;9.928;2023-07-16T00:59:42;99314.91;;;19.68;100.00
19624;BME280;9959;49.798;9.928;2023-07-16T01:02:09;99321.41;;;19.77;100.00
19624;BME280;9959;49.798;9.928;2023-07-16T01:04:36;99324.22;;;19.57;100.00
19624;BME280;9959;49.798;9.928;2023-07-16T01:07:06;99333.78;;;19.59;100.00
19624;BME280;9959;49.798;9.928;2023-07-16T01:09:36;99359.22;;;19.55;100.00
19624;BME280;9959;49.798;9.928;2023-07-16T01:12:08;99367.38;;;19.50;100.00
19624;BME280;9959;49.798;9.928;2023-07-16T01:14:35;99361.66;;;19.46;100.00
19624;BME280;9959;49.798;9.928;2023-07-16T01:17:04;99351.56;;;19.57;100.00
19624;BME280;9959;49.798;9.928;2023-07-16T01:19:31;99341.16;;;19.54;100.00
19624;BME280;9959;49.798;9.928;2023-07-16T01:27:29;99300.72;;;19.46;100.00
19624;BME280;9959;49.798;9.928;2023-07-16T01:30:04;99300.44;;;19.47;100.00
19624;BME280;9959;49.798;9.928;2023-07-16T01:32:31;99304.84;;;19.53;100.00
19624;BME280;9959;49.798;9.928;2023-07-16T01:34:59;99333.50;;;19.61;100.00
19624;BME280;9959;49.798;9.928;2023-07-16T01:37:26;99332.13;;;19.64;100.00
19624;BME280;9959;49.798;9.928;2023-07-16T01:39:54;99321.22;;;19.43;100.00
19624;BME280;9959;49.798;9.928;2023-07-16T01:42:20;99303.19;;;19.47;100.00
19624;BME280;9959;49.798;9.928;2023-07-16T01:44:47;99300.47;;;19.52;100.00
19624;BME280;9959;49.798;9.928;2023-07-16T01:50:03;99327.78;;;19.52;100.00
19624;BME280;9959;49.798;9.928;2023-07-16T01:52:30;99332.44;;;19.52;100.00
19624;BME280;9959;49.798;9.928;2023-07-16T01:54:56;99334.88;;;19.43;100.00
19624;BME280;9959;49.798;9.928;2023-07-16T01:57:23;99338.47;;;19.28;100.00
19624;BME280;9959;49.798;9.928;2023-07-16T01:59:50;99352.13;;;19.28;100.00
19624;BME280;9959;49.798;9.928;2023-07-16T02:02:17;99369.34;;;19.24;100.00
19624;BME280;9959;49.798;9.928;2023-07-16T02:04:44;99363.06;;;19.18;100.00
19624;BME280;9959;49.798;9.928;2023-07-16T02:07:11;99363.59;;;19.15;100.00
19624;BME280;9959;49.798;9.928;2023-07-16T02:09:38;99381.09;;;19.24;100.00
19624;BME280;9959;49.798;9.928;2023-07-16T02:12:05;99386.56;;;19.24;100.00
19624;BME280;9959;49.798;9.928;2023-07-16T02:14:32;99394.75;;;19.24;100.00
19624;BME280;9959;49.798;9.928;2023-07-16T02:16:59;99378.63;;;19.28;100.00
19624;BME280;9959;49.798;9.928;2023-07-16T02:19:26;99377.81;;;19.17;100.00
19624;BME280;9959;49.798;9.928;2023-07-16T02:21:53;99373.47;;;19.06;100.00
19624;BME280;9959;49.798;9.928;2023-07-16T02:24:21;99384.13;;;19.08;100.00
19624;BME280;9959;49.798;9.928;2023-07-16T02:26:48;99368.00;;;19.11;100.00
19624;BME280;9959;49.798;9.928;2023-07-16T02:29:14;99365.81;;;19.08;100.00
19624;BME280;9959;49.798;9.928;2023-07-16T02:31:41;99384.94;;;19.03;100.00
19624;BME280;9959;49.798;9.928;2023-07-16T02:34:12;99384.13;;;19.03;100.00
19624;BME280;9959;49.798;9.928;2023-07-16T02:36:39;99379.47;;;18.98;100.00
19624;BME280;9959;49.798;9.928;2023-07-16T02:39:06;99374.28;;;19.07;100.00
19624;BME280;9959;49.798;9.928;2023-07-16T02:41:33;99383.84;;;18.99;100.00
19624;BME280;9959;49.798;9.928;2023-07-16T02:44:02;99417.13;;;18.96;100.00
19624;BME280;9959;49.798;9.928;2023-07-16T02:46:29;99408.38;;;18.89;100.00
19624;BME280;9959;49.798;9.928;2023-07-16T02:48:56;99413.59;;;18.80;100.00
19624;BME280;9959;49.798;9.928;2023-07-16T02:51:23;99421.50;;;18.82;100.00
19624;BME280;9959;49.798;9.928;2023-07-16T02:53:50;99418.25;;;18.85;100.00
19624;BME280;9959;49.798;9.928;2023-07-16T02:56:17;99417.69;;;18.78;100.00
19624;BME280;9959;49.798;9.928;2023-07-16T02:58:44;99422.59;;;18.76;100.00
19624;BME280;9959;49.798;9.928;2023-07-16T03:01:12;99440.03;;;18.70;100.00
19624;BME280;9959;49.798;9.928;2023-07-16T03:03:39;99434.81;;;18.63;100.00
19624;BME280;9959;49.798;9.928;2023-07-16T03:06:07;99442.22;;;18.68;100.00
19624;BME280;9959;49.798;9.928;2023-07-16T03:08:34;99452.03;;;18.64;100.00
19624;BME280;9959;49.798;9.928;2023-07-16T03:11:01;99448.44;;;18.58;100.00
19624;BME280;9959;49.798;9.928;2023-07-16T03:13:28;99454.75;;;18.69;100.00
19624;BME280;9959;49.798;9.928;2023-07-16T03:15:55;99453.63;;;18.54;100.00
19624;BME280;9959;49.798;9.928;2023-07-16T03:18:22;99458.00;;;18.55;100.00
19624;BME280;9959;49.798;9.928;2023-07-16T03:20:49;99453.09;;;18.57;100.00
19624;BME280;9959;49.798;9.928;2023-07-16T03:23:16;99461.25;;;18.52;100.00
19624;BME280;9959;49.798;9.928;2023-07-16T03:25:43;99466.19;;;18.55;100.00
19624;BME280;9959;49.798;9.928;2023-07-16T03:28:11;99467.56;;;18.58;100.00
19624;BME280;9959;49.798;9.928;2023-07-16T03:30:38;99467.53;;;18.53;100.00
19624;BME280;9959;49.798;9.928;2023-07-16T03:33:05;99464.50;;;18.44;100.00
19624;BME280;9959;49.798;9.928;2023-07-16T03:35:31;99477.03;;;18.40;100.00
19624;BME280;9959;49.798;9.928;2023-07-16T03:37:58;99467.72;;;18.36;100.00
19624;BME280;9959;49.798;9.928;2023-07-16T03:40:26;99465.00;;;18.31;100.00
19624;BME280;9959;49.798;9.928;2023-07-16T03:42:53;99467.69;;;18.26;100.00
19624;BME280;9959;49.798;9.928;2023-07-16T03:45:20;99469.88;;;18.24;100.00
19624;BME280;9959;49.798;9.928;2023-07-16T03:47:47;99467.66;;;18.16;100.00
19624;BME280;9959;49.798;9.928;2023-07-16T03:50:14;99476.66;;;18.16;100.00
19624;BME280;9959;49.798;9.928;2023-07-16T03:52:41;99478.03;;;18.19;100.00
19624;BME280;9959;49.798;9.928;2023-07-16T03:55:08;99478.56;;;18.16;100.00
19624;BME280;9959;49.798;9.928;2023-07-16T03:57:35;99482.13;;;18.21;100.00
19624;BME280;9959;49.798;9.928;2023-07-16T04:00:03;99491.94;;;18.17;100.00
19624;BME280;9959;49.798;9.928;2023-07-16T04:02:33;99505.28;;;18.19;100.00
19624;BME280;9959;49.798;9.928;2023-07-16T04:05:00;99496.00;;;18.15;100.00
19624;BME280;9959;49.798;9.928;2023-07-16T04:07:27;99493.31;;;18.20;100.00
19624;BME280;9959;49.798;9.928;2023-07-16T04:09:53;99500.16;;;18.27;100.00
19624;BME280;9959;49.798;9.928;2023-07-16T04:12:20;99491.16;;;18.27;100.00
19624;BME280;9959;49.798;9.928;2023-07-16T04:14:47;99493.09;;;18.32;100.00
19624;BME280;9959;49.798;9.928;2023-07-16T04:17:14;99495.53;;;18.33;100.00
19624;BME280;9959;49.798;9.928;2023-07-16T04:19:41;99494.44;;;18.29;100.00
19624;BME280;9959;49.798;9.928;2023-07-16T04:22:08;99500.44;;;18.26;100.00
19624;BME280;9959;49.798;9.928;2023-07-16T04:24:34;99503.19;;;18.31;100.00
19624;BME280;9959;49.798;9.928;2023-07-16T04:27:01;99508.38;;;18.38;100.00
19624;BME280;9959;49.798;9.928;2023-07-16T04:29:28;99521.75;;;18.39;100.00
19624;BME280;9959;49.798;9.928;2023-07-16T04:31:55;99527.19;;;18.39;100.00
19624;BME280;9959;49.798;9.928;2023-07-16T04:34:22;99522.56;;;18.40;100.00
19624;BME280;9959;49.798;9.928;2023-07-16T04:36:49;99521.75;;;18.39;100.00
19624;BME280;9959;49.798;9.928;2023-07-16T04:39:15;99534.91;;;18.52;100.00
19624;BME280;9959;49.798;9.928;2023-07-16T04:41:42;99531.91;;;18.49;100.00
19624;BME280;9959;49.798;9.928;2023-07-16T04:44:09;99540.34;;;18.47;100.00
19624;BME280;9959;49.798;9.928;2023-07-16T04:46:36;99552.34;;;18.46;100.00
19624;BME280;9959;49.798;9.928;2023-07-16T04:49:04;99549.09;;;18.49;100.00
19624;BME280;9959;49.798;9.928;2023-07-16T04:51:31;99546.91;;;18.51;100.00
19624;BME280;9959;49.798;9.928;2023-07-16T04:53:58;99551.03;;;18.54;100.00
19624;BME280;9959;49.798;9.928;2023-07-16T04:56:25;99567.06;;;18.45;100.00
19624;BME280;9959;49.798;9.928;2023-07-16T04:58:52;99558.59;;;18.42;100.00
19624;BME280;9959;49.798;9.928;2023-07-16T05:01:19;99562.75;;;18.54;100.00
19624;BME280;9959;49.798;9.928;2023-07-16T05:03:47;99565.53;;;18.59;100.00
19624;BME280;9959;49.798;9.928;2023-07-16T05:06:14;99568.22;;;18.54;100.00
19624;BME280;9959;49.798;9.928;2023-07-16T05:08:41;99570.50;;;18.73;100.00
19624;BME280;9959;49.798;9.928;2023-07-16T05:11:09;99580.28;;;18.69;100.00
19624;BME280;9959;49.798;9.928;2023-07-16T05:13:35;99578.47;;;18.84;100.00
19624;BME280;9959;49.798;9.928;2023-07-16T05:16:02;99592.81;;;18.65;100.00
19624;BME280;9959;49.798;9.928;2023-07-16T05:18:29;99596.66;;;18.69;100.00
19624;BME280;9959;49.798;9.928;2023-07-16T05:20:56;99596.72;;;18.79;100.00
19624;BME280;9959;49.798;9.928;2023-07-16T05:23:23;99595.63;;;18.80;100.00
19624;BME280;9959;49.798;9.928;2023-07-16T05:25:50;99592.09;;;18.89;100.00
19624;BME280;9959;49.798;9.928;2023-07-16T05:28:18;99598.91;;;18.77;100.00
19624;BME280;9959;49.798;9.928;2023-07-16T05:30:45;99604.94;;;18.84;100.00
19624;BME280;9959;49.798;9.928;2023-07-16T05:33:12;99627.88;;;18.88;100.00
19624;BME280;9959;49.798;9.928;2023-07-16T05:35:39;99625.13;;;18.88;100.00
19624;BME280;9959;49.798;9.928;2023-07-16T05:38:06;99620.72;;;18.77;100.00
19624;BME280;9959;49.798;9.928;2023-07-16T05:40:34;99613.72;;;18.96;100.00
19624;BME280;9959;49.798;9.928;2023-07-16T05:43:01;99625.13;;;18.88;99.92
19624;BME280;9959;49.798;9.928;2023-07-16T05:45:27;99615.41;;;19.07;98.30
19624;BME280;9959;49.798;9.928;2023-07-16T05:47:54;99623.63;;;19.27;97.19
19624;BME280;9959;49.798;9.928;2023-07-16T05:50:21;99639.50;;;19.36;95.51
19624;BME280;9959;49.798;9.928;2023-07-16T05:52:48;99639.44;;;19.15;97.06
19624;BME280;9959;49.798;9.928;2023-07-16T05:55:15;99647.09;;;19.13;97.58
19624;BME280;9959;49.798;9.928;2023-07-16T05:57:42;99649.22;;;19.01;97.50
19624;BME280;9959;49.798;9.928;2023-07-16T06:00:09;99649.16;;;18.91;95.86
19624;BME280;9959;49.798;9.928;2023-07-16T06:02:37;99649.97;;;18.81;95.15
19624;BME280;9959;49.798;9.928;2023-07-16T06:05:04;99651.19;;;19.21;95.28
19624;BME280;9959;49.798;9.928;2023-07-16T06:07:31;99665.13;;;19.14;95.81
19624;BME280;9959;49.798;9.928;2023-07-16T06:09:59;99660.25;;;19.32;93.79
19624;BME280;9959;49.798;9.928;2023-07-16T06:12:26;99676.34;;;19.23;92.88
19624;BME280;9959;49.798;9.928;2023-07-16T06:14:53;99674.88;;;19.00;93.00
19624;BME280;9959;49.798;9.928;2023-07-16T06:17:20;99667.78;;;18.99;93.90
19624;BME280;9959;49.798;9.928;2023-07-16T06:19:47;99661.31;;;19.25;92.13
19624;BME280;9959;49.798;9.928;2023-07-16T06:22:16;99671.16;;;19.26;90.79
19624;BME280;9959;49.798;9.928;2023-07-16T06:24:43;99671.75;;;19.39;89.10
19624;BME280;9959;49.798;9.928;2023-07-16T06:27:10;99676.69;;;19.42;88.75
19624;BME280;9959;49.798;9.928;2023-07-16T06:29:37;99685.13;;;19.30;89.60
19624;BME280;9959;49.798;9.928;2023-07-16T06:32:04;99670.56;;;19.09;88.36
19624;BME280;9959;49.798;9.928;2023-07-16T06:34:31;99668.38;;;19.11;87.68
19624;BME280;9959;49.798;9.928;2023-07-16T06:36:58;99680.31;;;18.95;89.31
19624;BME280;9959;49.798;9.928;2023-07-16T06:39:25;99683.06;;;19.00;89.72
19624;BME280;9959;49.798;9.928;2023-07-16T06:41:52;99684.66;;;18.86;89.53
19624;BME280;9959;49.798;9.928;2023-07-16T06:44:19;99684.16;;;18.99;89.83
19624;BME280;9959;49.798;9.928;2023-07-16T06:46:46;99685.88;;;19.10;88.72
19624;BME280;9959;49.798;9.928;2023-07-16T06:49:13;99686.75;;;18.74;89.60
19624;BME280;9959;49.798;9.928;2023-07-16T06:51:40;99697.53;;;18.96;88.63
19624;BME280;9959;49.798;9.928;2023-07-16T06:54:07;99703.28;;;18.99;87.31
19624;BME280;9959;49.798;9.928;2023-07-16T06:56:34;99712.53;;;18.93;87.72
19624;BME280;9959;49.798;9.928;2023-07-16T06:59:01;99695.03;;;18.89;88.11
19624;BME280;9959;49.798;9.928;2023-07-16T07:01:28;99699.31;;;19.32;86.99
19624;BME280;9959;49.798;9.928;2023-07-16T07:03:55;99712.09;;;19.21;87.62
19624;BME280;9959;49.798;9.928;2023-07-16T07:06:22;99708.53;;;19.88;83.52
19624;BME280;9959;49.798;9.928;2023-07-16T07:08:51;99702.50;;;20.02;83.55
19624;BME280;9959;49.798;9.928;2023-07-16T07:11:18;99705.22;;;19.76;85.83
19624;BME280;9959;49.798;9.928;2023-07-16T07:13:45;99703.63;;;19.96;86.57
19624;BME280;9959;49.798;9.928;2023-07-16T07:16:12;99709.03;;;19.65;87.42
19624;BME280;9959;49.798;9.928;2023-07-16T07:18:40;99707.13;;;19.76;89.30
19624;BME280;9959;49.798;9.928;2023-07-16T07:21:06;99709.53;;;19.52;90.90
19624;BME280;9959;49.798;9.928;2023-07-16T07:23:33;99710.13;;;19.69;91.17
19624;BME280;9959;49.798;9.928;2023-07-16T07:26:00;99705.22;;;19.76;89.30
19624;BME280;9959;49.798;9.928;2023-07-16T07:28:27;99702.50;;;20.02;88.33
19624;BME280;9959;49.798;9.928;2023-07-16T07:30:54;99712.66;;;20.16;86.91
19624;BME280;9959;49.798;9.928;2023-07-16T07:33:22;99707.44;;;19.89;86.80
19624;BME280;9959;49.798;9.928;2023-07-16T07:35:48;99701.19;;;20.45;84.24
19624;BME280;9959;49.798;9.928;2023-07-16T07:38:15;99707.44;;;20.35;80.65
19624;BME280;9959;49.798;9.928;2023-07-16T07:40:44;99699.41;;;21.05;79.71
19624;BME280;9959;49.798;9.928;2023-07-16T07:43:11;99698.34;;;20.80;77.13
19624;BME280;9959;49.798;9.928;2023-07-16T07:45:38;99708.03;;;20.42;81.93
19624;BME280;9959;49.798;9.928;2023-07-16T07:48:05;99700.09;;;20.46;79.81
19624;BME280;9959;49.798;9.928;2023-07-16T07:50:32;99698.97;;;20.37;81.41
19624;BME280;9959;49.798;9.928;2023-07-16T07:52:59;99711.69;;;21.22;77.58
19624;BME280;9959;49.798;9.928;2023-07-16T07:55:25;99707.31;;;21.21;76.08
19624;BME280;9959;49.798;9.928;2023-07-16T07:57:52;99711.88;;;21.41;73.76
19624;BME280;9959;49.798;9.928;2023-07-16T08:00:20;99712.66;;;22.35;70.25
19624;BME280;9959;49.798;9.928;2023-07-16T08:02:47;99704.28;;;21.77;71.17
19624;BME280;9959;49.798;9.928;2023-07-16T08:05:14;99707.69;;;21.59;71.30
19624;BME280;9959;49.798;9.928;2023-07-16T08:07:41;99724.34;;;20.93;76.55
19624;BME280;9959;49.798;9.928;2023-07-16T08:10:08;99715.41;;;21.52;69.48
19624;BME280;9959;49.798;9.928;2023-07-16T08:12:35;99714.44;;;22.16;63.68
19624;BME280;9959;49.798;9.928;2023-07-16T08:15:02;99708.34;;;21.85;64.04
19624;BME280;9959;49.798;9.928;2023-07-16T08:17:30;99722.00;;;21.46;65.08
19624;BME280;9959;49.798;9.928;2023-07-16T08:19:57;99717.28;;;22.06;61.71
19624;BME280;9959;49.798;9.928;2023-07-16T08:22:24;99706.34;;;22.01;62.44
19624;BME280;9959;49.798;9.928;2023-07-16T08:24:51;99711.81;;;22.01;61.40
19624;BME280;9959;49.798;9.928;2023-07-16T08:27:18;99716.09;;;21.73;61.69
19624;BME280;9959;49.798;9.928;2023-07-16T08:29:46;99723.53;;;21.67;61.33
19624;BME280;9959;49.798;9.928;2023-07-16T08:32:13;99707.84;;;21.78;61.64
19624;BME280;9959;49.798;9.928;2023-07-16T08:34:39;99724.84;;;21.25;62.02
19624;BME280;9959;49.798;9.928;2023-07-16T08:37:06;99720.34;;;21.45;62.66
19624;BME280;9959;49.798;9.928;2023-07-16T08:39:33;99707.91;;;21.68;61.11
19624;BME280;9959;49.798;9.928;2023-07-16T08:42:01;99723.41;;;22.32;61.07
19624;BME280;9959;49.798;9.928;2023-07-16T08:44:29;99719.31;;;21.85;61.57
19624;BME280;9959;49.798;9.928;2023-07-16T08:46:56;99727.16;;;22.41;58.98
19624;BME280;9959;49.798;9.928;2023-07-16T08:49:23;99727.50;;;21.90;61.47
19624;BME280;9959;49.798;9.928;2023-07-16T08:51:51;99730.66;;;21.68;62.07
19624;BME280;9959;49.798;9.928;2023-07-16T08:54:19;99729.50;;;21.79;63.28
19624;BME280;9959;49.798;9.928;2023-07-16T08:56:47;99743.34;;;21.59;62.72
19624;BME280;9959;49.798;9.928;2023-07-16T08:59:15;99742.78;;;23.03;58.25
19624;BME280;9959;49.798;9.928;2023-07-16T09:01:42;99732.69;;;24.40;53.23
19624;BME280;9959;49.798;9.928;2023-07-16T09:04:09;99739.31;;;22.63;58.07
19624;BME280;9959;49.798;9.928;2023-07-16T09:06:36;99728.31;;;21.90;58.72
19624;BME280;9959;49.798;9.928;2023-07-16T09:09:03;99736.53;;;22.69;57.03
19624;BME280;9959;49.798;9.928;2023-07-16T09:11:30;99731.41;;;22.57;55.92
19624;BME280;9959;49.798;9.928;2023-07-16T09:13:57;99735.81;;;23.35;54.07
19624;BME280;9959;49.798;9.928;2023-07-16T09:16:24;99737.63;;;23.68;52.90
19624;BME280;9959;49.798;9.928;2023-07-16T09:18:50;99734.22;;;23.52;52.73
19624;BME280;9959;49.798;9.928;2023-07-16T09:21:17;99737.97;;;23.80;52.10
19624;BME280;9959;49.798;9.928;2023-07-16T09:23:44;99727.91;;;24.46;49.69
19624;BME280;9959;49.798;9.928;2023-07-16T09:26:11;99729.38;;;24.06;51.95
19624;BME280;9959;49.798;9.928;2023-07-16T09:28:38;99737.66;;;23.20;52.58
19624;BME280;9959;49.798;9.928;2023-07-16T09:31:07;99733.22;;;23.67;51.65
19624;BME280;9959;49.798;9.928;2023-07-16T09:33:34;99733.25;;;24.05;50.13
19624;BME280;9959;49.798;9.928;2023-07-16T09:36:03;99733.63;;;24.49;48.08
19624;BME280;9959;49.798;9.928;2023-07-16T09:38:29;99736.38;;;23.98;50.08
19624;BME280;9959;49.798;9.928;2023-07-16T09:40:57;99722.31;;;24.97;47.88
19624;BME280;9959;49.798;9.928;2023-07-16T09:43:24;99727.88;;;25.11;47.07
19624;BME280;9959;49.798;9.928;2023-07-16T09:45:51;99723.84;;;25.44;46.83
19624;BME280;9959;49.798;9.928;2023-07-16T09:48:18;99724.72;;;23.21;50.98
19624;BME280;9959;49.798;9.928;2023-07-16T09:50:50;99719.53;;;23.62;50.57
19624;BME280;9959;49.798;9.928;2023-07-16T09:53:20;99718.22;;;23.78;50.35
19624;BME280;9959;49.798;9.928;2023-07-16T09:55:49;99718.97;;;24.03;49.46
19624;BME280;9959;49.798;9.928;2023-07-16T09:58:19;99735.03;;;23.77;49.74
19624;BME280;9959;49.798;9.928;2023-07-16T10:00:50;99715.44;;;24.81;47.72
19624;BME280;9959;49.798;9.928;2023-07-16T10:03:17;99723.88;;;24.06;48.88
19624;BME280;9959;49.798;9.928;2023-07-16T10:05:44;99720.88;;;24.86;47.17
19624;BME280;9959;49.798;9.928;2023-07-16T10:08:18;99725.78;;;24.89;47.16
19624;BME280;9959;49.798;9.928;2023-07-16T10:10:48;99730.88;;;23.79;47.56
19624;BME280;9959;49.798;9.928;2023-07-16T10:13:15;99722.78;;;24.72;46.48
19624;BME280;9959;49.798;9.928;2023-07-16T10:15:53;99710.03;;;24.76;46.32
19624;BME280;9959;49.798;9.928;2023-07-16T10:18:29;99713.22;;;24.83;45.86
19624;BME280;9959;49.798;9.928;2023-07-16T10:21:07;99710.31;;;24.28;45.72
19624;BME280;9959;49.798;9.928;2023-07-16T10:26:07;99732.13;;;24.06;46.28
19624;BME280;9959;49.798;9.928;2023-07-16T10:28:38;99699.88;;;23.50;46.63
19624;BME280;9959;49.798;9.928;2023-07-16T10:31:05;99713.06;;;23.53;47.21
19624;BME280;9959;49.798;9.928;2023-07-16T10:33:34;99716.50;;;23.82;46.68
19624;BME280;9959;49.798;9.928;2023-07-16T10:36:04;99702.53;;;23.98;47.04
19624;BME280;9959;49.798;9.928;2023-07-16T10:38:40;99707.91;;;24.40;45.82
19624;BME280;9959;49.798;9.928;2023-07-16T10:41:07;99709.38;;;24.65;45.63
19624;BME280;9959;49.798;9.928;2023-07-16T10:43:34;99700.88;;;24.34;45.91
19624;BME280;9959;49.798;9.928;2023-07-16T10:46:02;99704.38;;;25.13;45.09
19624;BME280;9959;49.798;9.928;2023-07-16T10:48:29;99719.16;;;25.17;43.99
19624;BME280;9959;49.798;9.928;2023-07-16T10:50:56;99711.31;;;25.11;43.62
19624;BME280;9959;49.798;9.928;2023-07-16T10:53:23;99711.81;;;25.26;43.57
19624;BME280;9959;49.798;9.928;2023-07-16T10:55:50;99702.41;;;25.00;44.22
19624;BME280;9959;49.798;9.928;2023-07-16T10:58:17;99706.19;;;25.18;44.02
19624;BME280;9959;49.798;9.928;2023-07-16T11:00:45;99703.25;;;25.42;43.99
19624;BME280;9959;49.798;9.928;2023-07-16T11:03:15;99707.63;;;24.23;45.94
19624;BME280;9959;49.798;9.928;2023-07-16T11:05:45;99689.75;;;25.40;43.81
19624;BME280;9959;49.798;9.928;2023-07-16T11:08:23;99693.34;;;26.13;42.22
19624;BME280;9959;49.798;9.928;2023-07-16T11:10:55;99701.13;;;26.11;42.68
19624;BME280;9959;49.798;9.928;2023-07-16T11:13:29;99702.31;;;25.19;43.83
19624;BME280;9959;49.798;9.928;2023-07-16T11:16:06;99693.75;;;25.34;43.07
19624;BME280;9959;49.798;9.928;2023-07-16T11:18:33;99683.53;;;26.07;41.71
19624;BME280;9959;49.798;9.928;2023-07-16T11:21:01;99694.09;;;26.05;42.23
19624;BME280;9959;49.798;9.928;2023-07-16T11:23:28;99684.69;;;25.56;42.52
19624;BME280;9959;49.798;9.928;2023-07-16T11:25:55;99693.97;;;26.10;41.71
19624;BME280;9959;49.798;9.928;2023-07-16T11:28:22;99697.47;;;27.00;39.80
19624;BME280;9959;49.798;9.928;2023-07-16T11:30:49;99698.66;;;26.09;42.03
19624;BME280;9959;49.798;9.928;2023-07-16T11:33:16;99706.53;;;25.80;42.01
19624;BME280;9959;49.798;9.928;2023-07-16T11:35:43;99685.38;;;26.11;42.36
19624;BME280;9959;49.798;9.928;2023-07-16T11:38:10;99701.06;;;27.00;41.42
19624;BME280;9959;49.798;9.928;2023-07-16T11:40:38;99703.41;;;25.59;41.86
19624;BME280;9959;49.798;9.928;2023-07-16T11:43:10;99708.41;;;27.05;39.21
19624;BME280;9959;49.798;9.928;2023-07-16T11:45:38;99710.63;;;26.41;39.21
19624;BME280;9959;49.798;9.928;2023-07-16T11:48:05;99696.22;;;27.62;38.53
19624;BME280;9959;49.798;9.928;2023-07-16T11:50:32;99679.38;;;27.33;37.94
19624;BME280;9959;49.798;9.928;2023-07-16T11:53:00;99678.16;;;26.24;39.95
19624;BME280;9959;49.798;9.928;2023-07-16T11:55:30;99676.72;;;27.19;38.05
19624;BME280;9959;49.798;9.928;2023-07-16T11:57:57;99687.91;;;27.14;37.57
19624;BME280;9959;49.798;9.928;2023-07-16T12:00:26;99697.06;;;26.53;38.65
19624;BME280;9959;49.798;9.928;2023-07-16T12:02:53;99681.56;;;27.05;38.45
19624;BME280;9959;49.798;9.928;2023-07-16T12:05:21;99672.59;;;27.65;37.68
19624;BME280;9959;49.798;9.928;2023-07-16T12:08:10;99677.72;;;27.41;37.90
19624;BME280;9959;49.798;9.928;2023-07-16T12:10:41;99670.84;;;26.81;38.75
19624;BME280;9959;49.798;9.928;2023-07-16T12:13:08;99662.16;;;27.96;37.15
19624;BME280;9959;49.798;9.928;2023-07-16T12:15:35;99656.88;;;28.55;36.42
19624;BME280;9959;49.798;9.928;2023-07-16T12:18:01;99676.53;;;27.90;36.83
19624;BME280;9959;49.798;9.928;2023-07-16T12:20:29;99665.13;;;27.09;38.88
19624;BME280;9959;49.798;9.928;2023-07-16T12:22:56;99649.69;;;27.16;38.27
19624;BME280;9959;49.798;9.928;2023-07-16T12:25:23;99646.38;;;28.06;36.82
19624;BME280;9959;49.798;9.928;2023-07-16T12:27:50;99647.41;;;27.18;38.62
19624;BME280;9959;49.798;9.928;2023-07-16T12:30:21;99642.81;;;27.62;36.91
19624;BME280;9959;49.798;9.928;2023-07-16T12:32:48;99643.53;;;27.37;38.59
19624;BME280;9959;49.798;9.928;2023-07-16T12:35:15;99643.72;;;27.32;38.20
19624;BME280;9959;49.798;9.928;2023-07-16T12:37:42;99642.94;;;27.91;36.62
19624;BME280;9959;49.798;9.928;2023-07-16T12:40:09;99639.03;;;28.27;35.49
19624;BME280;9959;49.798;9.928;2023-07-16T12:42:36;99645.78;;;29.02;34.83
19624;BME280;9959;49.798;9.928;2023-07-16T12:45:03;99639.28;;;27.13;37.86
19624;BME280;9959;49.798;9.928;2023-07-16T12:47:30;99643.25;;;27.47;37.62
19624;BME280;9959;49.798;9.928;2023-07-16T12:49:57;99646.84;;;28.16;35.98
19624;BME280;9959;49.798;9.928;2023-07-16T12:52:24;99649.59;;;28.42;35.25
19624;BME280;9959;49.798;9.928;2023-07-16T12:54:50;99647.72;;;27.08;38.26
19624;BME280;9959;49.798;9.928;2023-07-16T12:57:17;99644.75;;;27.70;36.72
19624;BME280;9959;49.798;9.928;2023-07-16T12:59:44;99629.56;;;29.84;33.81
19624;BME280;9959;49.798;9.928;2023-07-16T13:02:11;99639.34;;;28.72;34.41
19624;BME280;9959;49.798;9.928;2023-07-16T13:04:38;99641.69;;;28.70;33.63
19624;BME280;9959;49.798;9.928;2023-07-16T13:07:05;99642.75;;;27.53;35.54
19624;BME280;9959;49.798;9.928;2023-07-16T13:09:32;99644.53;;;28.91;33.45
19624;BME280;9959;49.798;9.928;2023-07-16T13:11:59;99640.84;;;29.08;33.24
19624;BME280;9959;49.798;9.928;2023-07-16T13:14:26;99643.81;;;29.03;32.81
19624;BME280;9959;49.798;9.928;2023-07-16T13:16:53;99631.88;;;29.11;33.47
19624;BME280;9959;49.798;9.928;2023-07-16T13:19:20;99648.53;;;29.31;32.54